createdAt,value
2023-01-26T00:02:09.814Z,54.44
2023-01-26T00:04:37.257Z,55.00
2023-01-26T00:07:05.044Z,54.62
2023-01-26T00:09:32.473Z,55.50
2023-01-26T00:11:59.781Z,55.07
2023-01-26T00:14:48.867Z,54.32
2023-01-26T00:17:26.267Z,54.14
2023-01-26T00:19:57.668Z,55.12
2023-01-26T00:22:27.950Z,55.53
2023-01-26T00:24:55.673Z,54.25
2023-01-26T00:27:26.714Z,55.30
2023-01-26T00:29:56.739Z,55.00
2023-01-26T00:32:24.264Z,53.95
2023-01-26T00:34:51.927Z,54.30
2023-01-26T00:37:19.620Z,54.77
2023-01-26T00:39:47.292Z,55.71
2023-01-26T00:42:16.084Z,55.36
2023-01-26T00:44:48.977Z,55.88
2023-01-26T00:47:22.446Z,57.37
2023-01-26T00:49:50.916Z,56.75
2023-01-26T00:52:18.597Z,57.32
2023-01-26T00:54:46.265Z,58.39
2023-01-26T00:57:15.478Z,57.54
2023-01-26T00:59:43.099Z,57.76
2023-01-26T01:02:13.201Z,56.84
2023-01-26T01:04:40.665Z,55.44
2023-01-26T01:07:08.139Z,56.79
2023-01-26T01:09:35.566Z,58.31
2023-01-26T01:12:03.197Z,57.64
2023-01-26T01:14:30.933Z,57.04
2023-01-26T01:16:59.579Z,57.32
2023-01-26T01:19:30.096Z,56.94
2023-01-26T01:21:57.936Z,56.26
2023-01-26T01:24:25.591Z,55.69
2023-01-26T01:26:53.234Z,56.62
2023-01-26T01:29:21.594Z,57.00
2023-01-26T01:31:49.113Z,56.55
2023-01-26T01:34:16.585Z,56.78
2023-01-26T01:36:44.280Z,56.15
2023-01-26T01:39:11.875Z,55.04
2023-01-26T01:41:39.696Z,54.96
2023-01-26T01:44:27.586Z,55.81
2023-01-26T01:47:13.527Z,56.25
2023-01-26T01:49:50.367Z,56.53
2023-01-26T01:52:28.881Z,56.77
2023-01-26T01:55:15.841Z,56.50
2023-01-26T01:58:01.408Z,55.52
2023-01-26T02:00:30.088Z,54.61
2023-01-26T02:03:11.789Z,55.10
2023-01-26T02:06:07.222Z,55.11
2023-01-26T02:08:40.798Z,55.39
2023-01-26T02:11:23.584Z,55.95
2023-01-26T02:13:52.063Z,55.87
2023-01-26T02:16:20.877Z,56.56
2023-01-26T02:18:48.464Z,56.25
2023-01-26T02:21:20.884Z,55.39
2023-01-26T02:24:21.735Z,54.97
2023-01-26T02:26:50.574Z,55.38
2023-01-26T02:29:18.424Z,55.82
2023-01-26T02:31:46.373Z,55.70
2023-01-26T02:34:14.015Z,57.54
2023-01-26T02:36:41.576Z,57.17
2023-01-26T02:39:44.097Z,57.60
2023-01-26T02:42:30.777Z,59.26
2023-01-26T02:44:58.927Z,58.35
2023-01-26T02:47:26.452Z,58.21
2023-01-26T02:49:53.926Z,58.82
2023-01-26T02:52:33.652Z,58.86
2023-01-26T02:55:23.193Z,58.48
2023-01-26T02:57:58.121Z,58.64
2023-01-26T03:00:37.710Z,58.14
2023-01-26T03:03:18.556Z,58.00
2023-01-26T03:05:46.990Z,57.57
2023-01-26T03:08:14.930Z,56.93
2023-01-26T03:10:42.550Z,56.62
2023-01-26T03:13:15.110Z,57.83
2023-01-26T03:15:43.321Z,58.23
2023-01-26T03:18:36.325Z,58.60
2023-01-26T03:21:32.820Z,59.17
2023-01-26T03:24:20.762Z,58.67
2023-01-26T03:27:08.038Z,58.91
2023-01-26T03:29:36.494Z,57.93
2023-01-26T03:32:04.403Z,57.76
2023-01-26T03:34:32.410Z,57.68
2023-01-26T03:37:00.065Z,57.34
2023-01-26T03:40:01.982Z,57.94
2023-01-26T03:42:49.564Z,57.54
2023-01-26T03:45:36.335Z,59.23
2023-01-26T03:48:31.524Z,58.61
2023-01-26T03:51:18.848Z,58.65
2023-01-26T03:54:05.323Z,57.90
2023-01-26T03:56:33.092Z,58.05
2023-01-26T03:59:08.663Z,57.40
2023-01-26T04:02:05.586Z,56.85
2023-01-26T04:04:52.982Z,58.86
2023-01-26T04:07:48.367Z,58.16
2023-01-26T04:10:16.361Z,57.06
2023-01-26T04:12:44.168Z,58.78
2023-01-26T04:15:35.941Z,59.77
2023-01-26T04:18:27.265Z,61.10
2023-01-26T04:21:14.354Z,61.40
2023-01-26T04:23:44.189Z,61.20
2023-01-26T04:26:11.561Z,60.42
2023-01-26T04:28:39.388Z,60.38
2023-01-26T04:31:08.884Z,57.89
2023-01-26T04:33:38.185Z,59.41
2023-01-26T04:36:08.809Z,59.48
2023-01-26T04:38:39.923Z,59.93
2023-01-26T04:41:07.467Z,59.83
2023-01-26T04:43:41.571Z,61.74
2023-01-26T04:46:09.856Z,62.98
2023-01-26T04:48:40.411Z,62.35
2023-01-26T04:51:16.709Z,63.50
2023-01-26T04:53:44.434Z,62.45
2023-01-26T04:56:34.491Z,64.00
2023-01-26T04:59:06.929Z,62.94
2023-01-26T05:01:36.546Z,62.65
2023-01-26T05:04:08.035Z,62.40
2023-01-26T05:06:38.484Z,62.11
2023-01-26T05:09:06.512Z,62.05
2023-01-26T05:11:36.397Z,62.50
2023-01-26T05:14:18.161Z,63.29
2023-01-26T05:17:04.093Z,63.52
2023-01-26T05:19:47.747Z,63.62
2023-01-26T05:22:35.501Z,62.90
2023-01-26T05:25:23.334Z,62.39
2023-01-26T05:28:07.365Z,62.84
2023-01-26T05:30:35.149Z,63.58
2023-01-26T05:33:06.788Z,63.50
2023-01-26T05:35:35.131Z,64.40
2023-01-26T05:38:03.810Z,65.32
2023-01-26T05:40:33.701Z,64.92
2023-01-26T05:43:01.142Z,63.25
2023-01-26T05:45:44.087Z,63.31
2023-01-26T05:48:12.840Z,63.30
2023-01-26T05:50:44.475Z,63.32
2023-01-26T05:53:15.245Z,63.42
2023-01-26T05:55:43.833Z,64.38
2023-01-26T05:58:12.095Z,64.25
2023-01-26T06:00:40.266Z,63.00
2023-01-26T06:03:13.121Z,63.45
2023-01-26T06:05:40.594Z,62.68
2023-01-26T06:08:15.636Z,63.43
2023-01-26T06:11:01.767Z,64.50
2023-01-26T06:13:50.168Z,63.70
2023-01-26T06:16:24.295Z,63.36
2023-01-26T06:18:53.496Z,62.55
2023-01-26T06:21:22.321Z,63.57
2023-01-26T06:23:50.272Z,64.66
2023-01-26T06:26:17.837Z,65.09
2023-01-26T06:28:46.506Z,66.09
2023-01-26T06:31:14.910Z,65.61
2023-01-26T06:33:43.298Z,64.33
2023-01-26T06:36:15.511Z,64.62
2023-01-26T06:38:54.466Z,65.31
2023-01-26T06:41:23.148Z,64.50
2023-01-26T06:43:51.393Z,63.28
2023-01-26T06:46:20.720Z,62.34
2023-01-26T06:48:50.448Z,61.36
2023-01-26T06:51:21.047Z,61.10
2023-01-26T06:53:57.630Z,61.51
2023-01-26T06:56:54.291Z,60.98
2023-01-26T06:59:29.542Z,62.14
2023-01-26T07:02:22.152Z,62.88
2023-01-26T07:04:51.083Z,61.26
2023-01-26T07:07:18.435Z,62.66
2023-01-26T07:09:45.825Z,62.05
2023-01-26T07:12:13.314Z,62.21
2023-01-26T07:14:41.169Z,63.14
2023-01-26T07:17:08.616Z,63.23
2023-01-26T07:19:37.384Z,64.29
2023-01-26T07:22:06.419Z,64.06
2023-01-26T07:24:33.652Z,62.57
2023-01-26T07:27:01.303Z,62.20
2023-01-26T07:29:29.565Z,61.06
2023-01-26T07:31:56.916Z,60.66
2023-01-26T07:34:24.790Z,61.35
2023-01-26T07:36:54.933Z,61.64
2023-01-26T07:39:22.365Z,60.82
2023-01-26T07:41:50.443Z,61.72
2023-01-26T07:44:50.072Z,62.19
2023-01-26T07:47:23.485Z,61.90
2023-01-26T07:49:51.032Z,61.52
2023-01-26T07:52:18.264Z,61.45
2023-01-26T07:54:45.587Z,61.63
2023-01-26T07:57:13.421Z,61.30
2023-01-26T07:59:40.699Z,61.69
2023-01-26T08:02:10.833Z,60.12
2023-01-26T08:04:38.097Z,61.80
2023-01-26T08:07:05.401Z,62.30
2023-01-26T08:09:32.711Z,62.89
2023-01-26T08:12:02.293Z,63.44
2023-01-26T08:14:45.071Z,62.15
2023-01-26T08:17:17.349Z,62.16
2023-01-26T08:19:48.018Z,60.79
2023-01-26T08:22:15.264Z,60.83
2023-01-26T08:24:42.590Z,60.35
2023-01-26T08:27:09.990Z,61.08
2023-01-26T08:29:37.468Z,61.67
2023-01-26T08:32:05.153Z,59.87
2023-01-26T08:34:32.736Z,58.36
2023-01-26T08:37:00.334Z,56.96
2023-01-26T08:39:28.223Z,55.18
2023-01-26T08:41:55.552Z,54.78
2023-01-26T08:44:22.819Z,55.06
2023-01-26T08:46:50.142Z,54.66
2023-01-26T08:49:17.498Z,53.59
2023-01-26T08:51:44.833Z,53.89
2023-01-26T08:54:12.225Z,52.94
2023-01-26T08:56:39.514Z,52.08
2023-01-26T08:59:07.427Z,51.69
2023-01-26T09:01:35.007Z,50.16
2023-01-26T09:04:03.303Z,50.04
2023-01-26T09:06:33.134Z,49.63
2023-01-26T09:09:00.558Z,51.46
2023-01-26T09:11:28.186Z,51.41
2023-01-26T09:13:58.503Z,51.50
2023-01-26T09:16:25.939Z,50.28
2023-01-26T09:18:54.585Z,51.74
2023-01-26T09:21:24.084Z,52.71
2023-01-26T09:23:51.656Z,52.08
2023-01-26T09:26:19.210Z,52.37
2023-01-26T09:28:52.571Z,53.04
2023-01-26T09:31:20.333Z,53.16
2023-01-26T09:33:50.376Z,53.10
2023-01-26T09:36:18.442Z,53.09
2023-01-26T09:38:46.040Z,52.83
2023-01-26T09:41:50.056Z,52.48
2023-01-26T09:44:25.772Z,51.48
2023-01-26T09:47:27.141Z,51.77
2023-01-26T09:50:13.213Z,51.88
2023-01-26T09:53:19.188Z,51.29
2023-01-26T09:55:49.495Z,50.62
2023-01-26T09:58:40.640Z,50.77
2023-01-26T10:01:30.264Z,50.17
2023-01-26T10:04:36.638Z,50.85
2023-01-26T10:07:13.524Z,50.32
2023-01-26T10:09:51.951Z,50.31
2023-01-26T10:12:32.355Z,50.17
2023-01-26T10:15:18.302Z,50.92
2023-01-26T10:17:48.245Z,51.07
2023-01-26T10:20:15.588Z,50.73
2023-01-26T10:22:55.680Z,50.53
2023-01-26T10:25:38.916Z,50.17
2023-01-26T10:28:30.546Z,49.88
2023-01-26T10:31:05.935Z,49.26
2023-01-26T10:33:38.311Z,48.56
2023-01-26T10:36:09.366Z,50.11
2023-01-26T10:38:36.670Z,51.37
2023-01-26T10:41:19.153Z,51.14
2023-01-26T10:44:11.871Z,49.80
2023-01-26T10:46:47.292Z,51.40
2023-01-26T10:49:17.768Z,49.66
2023-01-26T10:52:17.919Z,49.94
2023-01-26T10:54:47.118Z,50.32
2023-01-26T10:57:33.147Z,50.92
2023-01-26T11:00:11.550Z,49.39
2023-01-26T11:02:55.021Z,49.29
2023-01-26T11:05:25.803Z,49.22
2023-01-26T11:08:02.232Z,49.62
2023-01-26T11:13:29.318Z,50.97
2023-01-26T11:16:21.820Z,51.83
2023-01-26T11:19:14.442Z,50.51
2023-01-26T11:21:44.861Z,50.35
2023-01-26T11:24:43.708Z,49.49
2023-01-26T11:27:41.196Z,49.69
2023-01-26T11:30:56.646Z,50.05
2023-01-26T11:34:19.844Z,51.94
2023-01-26T11:37:30.270Z,53.25
2023-01-26T11:40:32.628Z,53.96
2023-01-26T11:44:24.393Z,54.18
2023-01-26T11:47:09.110Z,53.37
2023-01-26T11:49:52.403Z,52.93
2023-01-26T11:52:56.796Z,52.74
2023-01-26T11:55:59.903Z,53.15
2023-01-26T11:58:56.147Z,52.94
2023-01-26T12:01:36.970Z,53.23
2023-01-26T12:04:04.531Z,52.79
2023-01-26T12:06:55.413Z,52.18
2023-01-26T12:09:36.603Z,51.73
2023-01-26T12:12:38.342Z,50.74
2023-01-26T12:15:33.850Z,50.98
2023-01-26T12:18:09.954Z,49.85
2023-01-26T12:21:06.195Z,50.99
2023-01-26T12:24:02.359Z,50.88
2023-01-26T12:26:43.269Z,51.39
2023-01-26T12:29:39.987Z,48.32
2023-01-26T12:32:16.950Z,48.95
2023-01-26T12:34:44.814Z,49.35
2023-01-26T12:37:39.728Z,47.94
2023-01-26T12:40:52.021Z,48.50
2023-01-26T12:43:33.558Z,49.02
2023-01-26T12:46:02.529Z,50.06
2023-01-26T12:48:50.822Z,49.05
2023-01-26T12:51:34.385Z,49.74
2023-01-26T12:54:20.963Z,48.49
2023-01-26T12:56:56.935Z,49.20
2023-01-26T12:59:48.173Z,50.58
2023-01-26T13:02:16.115Z,50.77
2023-01-26T13:04:48.884Z,53.51
2023-01-26T13:07:34.494Z,55.50
2023-01-26T13:10:19.225Z,55.01
2023-01-26T13:12:56.169Z,56.23
2023-01-26T13:15:32.283Z,55.49
2023-01-26T13:18:04.822Z,54.80
2023-01-26T13:20:48.509Z,54.33
2023-01-26T13:23:45.485Z,54.07
2023-01-26T13:26:49.679Z,54.46
2023-01-26T13:29:27.261Z,53.48
2023-01-26T13:31:58.567Z,53.29
2023-01-26T13:34:39.455Z,53.22
2023-01-26T13:37:36.002Z,52.94
2023-01-26T13:40:23.559Z,52.41
2023-01-26T13:43:39.868Z,53.14
2023-01-26T13:46:43.285Z,52.36
2023-01-26T13:49:43.188Z,50.99
2023-01-26T13:52:25.765Z,51.58
2023-01-26T13:55:00.336Z,50.55
2023-01-26T13:57:31.493Z,50.53
2023-01-26T14:00:01.249Z,51.16
2023-01-26T14:02:35.652Z,51.66
2023-01-26T14:05:06.250Z,52.10
2023-01-26T14:07:42.602Z,52.94
2023-01-26T14:10:19.445Z,52.19
2023-01-26T14:12:56.640Z,52.80
2023-01-26T14:15:29.640Z,53.89
2023-01-26T14:18:05.396Z,52.76
2023-01-26T14:20:39.877Z,52.28
2023-01-26T14:23:19.389Z,52.63
2023-01-26T14:25:58.061Z,54.14
2023-01-26T14:28:34.876Z,53.24
2023-01-26T14:31:15.801Z,52.89
2023-01-26T14:33:44.049Z,53.60
2023-01-26T14:36:19.617Z,54.03
2023-01-26T14:38:52.488Z,54.42
2023-01-26T14:41:34.547Z,53.24
2023-01-26T14:44:04.130Z,53.25
2023-01-26T14:47:00.753Z,52.74
2023-01-26T14:50:14.933Z,51.38
2023-01-26T14:52:49.263Z,52.54
2023-01-26T14:55:33.764Z,51.93
2023-01-26T14:58:14.798Z,53.31
2023-01-26T15:00:42.680Z,52.58
2023-01-26T15:03:36.851Z,52.48
2023-01-26T15:06:13.251Z,52.92
2023-01-26T15:08:56.816Z,52.91
2023-01-26T15:11:58.792Z,54.44
2023-01-26T15:14:33.590Z,54.49
2023-01-26T15:17:04.557Z,53.98
2023-01-26T15:19:40.918Z,53.52
2023-01-26T15:22:22.405Z,52.47
2023-01-26T15:25:04.358Z,52.87
2023-01-26T15:27:37.067Z,51.74
2023-01-26T15:30:16.651Z,52.50
2023-01-26T15:32:44.551Z,52.14
2023-01-26T15:35:38.249Z,51.86
2023-01-26T15:38:11.739Z,51.86
2023-01-26T15:40:40.393Z,52.21
2023-01-26T15:43:21.442Z,52.21
2023-01-26T15:46:00.049Z,52.12
2023-01-26T15:48:31.725Z,51.99
2023-01-26T15:50:59.304Z,53.15
2023-01-26T15:53:27.295Z,52.81
2023-01-26T15:55:56.324Z,52.77
2023-01-26T15:58:34.671Z,53.25
2023-01-26T16:01:02.661Z,55.89
2023-01-26T16:03:30.171Z,55.43
2023-01-26T16:05:57.830Z,55.32
2023-01-26T16:08:25.286Z,54.51
2023-01-26T16:10:54.507Z,53.11
2023-01-26T16:13:22.385Z,53.43
2023-01-26T16:15:55.914Z,52.31
2023-01-26T16:18:23.155Z,52.23
2023-01-26T16:20:50.886Z,52.70
2023-01-26T16:23:28.764Z,52.93
2023-01-26T16:25:56.398Z,52.18
2023-01-26T16:28:23.844Z,51.98
2023-01-26T16:30:51.864Z,52.33
2023-01-26T16:33:24.823Z,51.99
2023-01-26T16:35:54.673Z,52.28
2023-01-26T16:38:22.144Z,52.37
2023-01-26T16:40:49.873Z,52.23
2023-01-26T16:43:30.209Z,51.83
2023-01-26T16:45:58.057Z,52.37
2023-01-26T16:48:25.915Z,52.46
2023-01-26T16:50:54.638Z,53.51
2023-01-26T16:53:35.945Z,52.93
2023-01-26T16:56:04.184Z,53.60
2023-01-26T16:58:33.259Z,53.80
2023-01-26T17:01:01.008Z,54.03
2023-01-26T17:03:28.281Z,53.98
2023-01-26T17:05:56.961Z,53.35
2023-01-26T17:08:24.372Z,53.49
2023-01-26T17:11:02.016Z,53.54
2023-01-26T17:13:31.483Z,53.45
2023-01-26T17:15:59.254Z,52.29
2023-01-26T17:18:26.584Z,52.93
2023-01-26T17:20:54.048Z,52.19
2023-01-26T17:23:21.494Z,54.42
2023-01-26T17:25:51.885Z,55.01
2023-01-26T17:28:19.039Z,55.76
2023-01-26T17:30:46.369Z,54.62
2023-01-26T17:33:13.656Z,54.54
2023-01-26T17:35:41.399Z,55.06
2023-01-26T17:38:08.638Z,54.76
2023-01-26T17:40:36.804Z,54.93
2023-01-26T17:43:04.084Z,54.42
2023-01-26T17:45:31.383Z,54.08
2023-01-26T17:47:58.566Z,55.07
2023-01-26T17:50:26.140Z,55.25
2023-01-26T17:52:53.716Z,54.33
2023-01-26T17:55:21.113Z,54.19
2023-01-26T17:57:48.364Z,53.71
2023-01-26T18:00:16.658Z,53.01
2023-01-26T18:02:43.942Z,55.89
2023-01-26T18:05:13.785Z,55.07
2023-01-26T18:07:41.136Z,53.86
2023-01-26T18:10:11.879Z,54.50
2023-01-26T18:12:39.097Z,54.70
2023-01-26T18:15:07.460Z,53.76
2023-01-26T18:17:36.664Z,54.97
2023-01-26T18:20:06.042Z,55.49
2023-01-26T18:22:33.430Z,55.80
2023-01-26T18:25:00.691Z,56.08
2023-01-26T18:27:28.021Z,56.51
2023-01-26T18:29:55.326Z,56.41
2023-01-26T18:32:22.595Z,56.64
2023-01-26T18:34:49.868Z,59.58
2023-01-26T18:37:17.193Z,58.82
2023-01-26T18:39:44.644Z,59.08
2023-01-26T18:42:11.993Z,58.99
2023-01-26T18:44:39.344Z,58.69
2023-01-26T18:47:06.780Z,58.75
2023-01-26T18:49:34.552Z,59.25
2023-01-26T18:52:02.021Z,58.66
2023-01-26T18:54:29.417Z,59.23
2023-01-26T18:56:57.036Z,59.40
2023-01-26T18:59:24.733Z,59.26
2023-01-26T19:01:52.119Z,58.81
2023-01-26T19:04:19.611Z,59.34
2023-01-26T19:06:47.790Z,59.35
2023-01-26T19:09:15.585Z,60.15
2023-01-26T19:11:42.963Z,60.56
2023-01-26T19:14:10.385Z,60.38
2023-01-26T19:16:38.093Z,60.23
2023-01-26T19:19:05.580Z,59.72
2023-01-26T19:21:34.129Z,59.86
2023-01-26T19:24:08.105Z,59.30
2023-01-26T19:26:35.513Z,59.18
2023-01-26T19:29:03.138Z,58.96
2023-01-26T19:31:30.791Z,59.20
2023-01-26T19:34:05.361Z,58.89
2023-01-26T19:36:36.865Z,57.94
2023-01-26T19:39:05.953Z,58.84
2023-01-26T19:41:34.739Z,59.84
2023-01-26T19:44:06.303Z,60.47
2023-01-26T19:46:33.903Z,60.17
2023-01-26T19:49:01.616Z,61.05
2023-01-26T19:51:29.556Z,61.46
2023-01-26T19:53:59.474Z,60.71
2023-01-26T19:56:32.950Z,60.55
2023-01-26T19:59:10.215Z,60.34
2023-01-26T20:01:38.070Z,60.03
2023-01-26T20:04:12.487Z,59.93
2023-01-26T20:06:40.327Z,60.79
2023-01-26T20:09:08.778Z,60.23
2023-01-26T20:11:36.262Z,60.53
2023-01-26T20:14:08.938Z,59.81
2023-01-26T20:16:37.106Z,59.72
2023-01-26T20:19:04.883Z,59.95
2023-01-26T20:21:33.722Z,60.91
2023-01-26T20:24:05.731Z,61.16
2023-01-26T20:26:35.948Z,60.65
2023-01-26T20:29:04.345Z,61.00
2023-01-26T20:31:34.036Z,61.25
2023-01-26T20:34:02.136Z,60.72
2023-01-26T20:36:29.845Z,60.17
2023-01-26T20:38:58.010Z,60.18
2023-01-26T20:41:30.363Z,59.77
2023-01-26T20:44:02.229Z,60.16
2023-01-26T20:46:38.211Z,59.99
2023-01-26T20:49:08.671Z,60.19
2023-01-26T20:51:39.503Z,61.24
2023-01-26T20:54:07.936Z,59.89
2023-01-26T20:56:38.711Z,60.25
2023-01-26T20:59:07.297Z,60.33
2023-01-26T21:01:36.391Z,60.12
2023-01-26T21:04:07.067Z,60.67
2023-01-26T21:06:35.212Z,60.62
2023-01-26T21:09:03.874Z,60.03
2023-01-26T21:11:32.761Z,60.30
2023-01-26T21:14:02.052Z,60.30
2023-01-26T21:16:33.157Z,60.16
2023-01-26T21:19:01.018Z,58.51
2023-01-26T21:21:28.562Z,59.25
2023-01-26T21:23:56.456Z,59.43
2023-01-26T21:26:27.836Z,59.70
2023-01-26T21:28:59.735Z,59.70
2023-01-26T21:31:31.938Z,59.43
2023-01-26T21:34:01.033Z,59.53
2023-01-26T21:36:31.785Z,58.76
2023-01-26T21:39:01.376Z,58.24
2023-01-26T21:41:51.420Z,58.61
2023-01-26T21:44:53.644Z,58.73
2023-01-26T21:47:24.265Z,59.19
2023-01-26T21:49:53.683Z,59.02
2023-01-26T21:52:39.850Z,60.53
2023-01-26T21:55:07.493Z,59.15
2023-01-26T21:57:53.655Z,59.24
2023-01-26T22:00:21.631Z,59.19
2023-01-26T22:02:52.916Z,60.17
2023-01-26T22:05:20.683Z,59.59
2023-01-26T22:07:48.109Z,59.83
2023-01-26T22:10:18.125Z,59.78
2023-01-26T22:12:51.072Z,58.62
2023-01-26T22:15:18.457Z,58.64
2023-01-26T22:17:45.827Z,58.34
2023-01-26T22:20:13.796Z,57.75
2023-01-26T22:22:41.245Z,58.30
2023-01-26T22:25:09.355Z,58.57
2023-01-26T22:27:40.881Z,58.26
2023-01-26T22:30:09.623Z,57.98
2023-01-26T22:32:36.823Z,58.45
2023-01-26T22:35:04.574Z,58.42
2023-01-26T22:37:31.819Z,58.36
2023-01-26T22:39:59.243Z,58.27
2023-01-26T22:42:26.487Z,57.72
2023-01-26T22:44:53.717Z,56.85
2023-01-26T22:47:24.547Z,56.10
2023-01-26T22:49:51.867Z,56.47
2023-01-26T22:52:19.128Z,57.11
2023-01-26T22:54:50.429Z,56.79
2023-01-26T22:57:17.676Z,55.94
2023-01-26T22:59:45.040Z,56.33
2023-01-26T23:02:12.689Z,56.34
2023-01-26T23:04:39.987Z,57.25
2023-01-26T23:07:10.602Z,58.20
2023-01-26T23:09:37.888Z,58.43
2023-01-26T23:12:05.680Z,57.92
2023-01-26T23:14:38.098Z,58.70
2023-01-26T23:17:07.261Z,57.53
2023-01-26T23:19:37.074Z,58.35
2023-01-26T23:22:04.723Z,58.69
2023-01-26T23:24:31.909Z,58.95
2023-01-26T23:27:02.307Z,57.75
2023-01-26T23:29:29.508Z,57.52
2023-01-26T23:31:57.038Z,57.51
2023-01-26T23:34:24.746Z,57.95
2023-01-26T23:36:51.903Z,57.27
2023-01-26T23:39:19.101Z,57.02
2023-01-26T23:41:48.996Z,57.45
2023-01-26T23:44:16.164Z,57.37
2023-01-26T23:46:43.889Z,56.89
2023-01-26T23:49:11.462Z,57.36
2023-01-26T23:51:38.882Z,58.68
2023-01-26T23:54:06.127Z,58.06
2023-01-26T23:56:33.292Z,56.47
2023-01-26T23:59:00.568Z,57.23
